sensor_id;sensor_type;location;lat;lon;timestamp;P1;durP1;ratioP1;P2;durP2;ratioP2
70008;SDS011;59542;37.950;-122.338;2023-05-21T00:01:14;6.07;;;2.40;;
70008;SDS011;59542;37.950;-122.338;2023-05-21T00:03:44;7.25;;;2.03;;
70008;SDS011;59542;37.950;-122.338;2023-05-21T00:06:10;7.85;;;2.10;;
70008;SDS011;59542;37.950;-122.338;2023-05-21T00:08:40;6.75;;;2.03;;
70008;SDS011;59542;37.950;-122.338;2023-05-21T00:11:07;6.00;;;2.47;;
70008;SDS011;59542;37.950;-122.338;2023-05-21T00:13:34;4.95;;;1.98;;
70008;SDS011;59542;37.950;-122.338;2023-05-21T00:16:00;8.25;;;2.35;;
70008;SDS011;59542;37.950;-122.338;2023-05-21T00:18:26;5.65;;;1.83;;
70008;SDS011;59542;37.950;-122.338;2023-05-21T00:20:52;6.85;;;1.80;;
70008;SDS011;59542;37.950;-122.338;2023-05-21T00:23:19;4.25;;;1.67;;
70008;SDS011;59542;37.950;-122.338;2023-05-21T00:25:45;6.25;;;1.83;;
70008;SDS011;59542;37.950;-122.338;2023-05-21T00:28:12;6.45;;;2.30;;
70008;SDS011;59542;37.950;-122.338;2023-05-21T00:30:38;6.25;;;1.98;;
70008;SDS011;59542;37.950;-122.338;2023-05-21T00:33:05;5.80;;;2.17;;
70008;SDS011;59542;37.950;-122.338;2023-05-21T00:35:31;6.78;;;1.83;;
70008;SDS011;59542;37.950;-122.338;2023-05-21T00:37:57;9.15;;;2.20;;
70008;SDS011;59542;37.950;-122.338;2023-05-21T00:40:24;8.13;;;2.13;;
70008;SDS011;59542;37.950;-122.338;2023-05-21T00:42:50;6.22;;;1.55;;
70008;SDS011;59542;37.950;-122.338;2023-05-21T00:45:18;6.00;;;1.88;;
70008;SDS011;59542;37.950;-122.338;2023-05-21T00:47:44;6.97;;;2.05;;
70008;SDS011;59542;37.950;-122.338;2023-05-21T00:50:12;5.47;;;2.05;;
70008;SDS011;59542;37.950;-122.338;2023-05-21T00:52:41;4.85;;;2.08;;
70008;SDS011;59542;37.950;-122.338;2023-05-21T00:55:09;6.43;;;2.03;;
70008;SDS011;59542;37.950;-122.338;2023-05-21T00:57:36;10.98;;;2.25;;
70008;SDS011;59542;37.950;-122.338;2023-05-21T01:00:04;7.65;;;1.90;;
70008;SDS011;59542;37.950;-122.338;2023-05-21T01:02:35;5.78;;;1.75;;
70008;SDS011;59542;37.950;-122.338;2023-05-21T01:05:02;3.47;;;1.90;;
70008;SDS011;59542;37.950;-122.338;2023-05-21T01:07:33;5.70;;;1.67;;
70008;SDS011;59542;37.950;-122.338;2023-05-21T01:10:01;8.30;;;2.20;;
70008;SDS011;59542;37.950;-122.338;2023-05-21T01:12:29;6.05;;;2.00;;
70008;SDS011;59542;37.950;-122.338;2023-05-21T01:14:58;7.45;;;2.30;;
70008;SDS011;59542;37.950;-122.338;2023-05-21T01:17:27;7.75;;;1.95;;
70008;SDS011;59542;37.950;-122.338;2023-05-21T01:19:59;8.20;;;2.67;;
70008;SDS011;59542;37.950;-122.338;2023-05-21T01:22:27;5.93;;;2.20;;
70008;SDS011;59542;37.950;-122.338;2023-05-21T01:24:56;6.10;;;2.20;;
70008;SDS011;59542;37.950;-122.338;2023-05-21T01:27:23;5.25;;;2.00;;
70008;SDS011;59542;37.950;-122.338;2023-05-21T01:29:49;7.65;;;2.50;;
70008;SDS011;59542;37.950;-122.338;2023-05-21T01:32:22;4.93;;;2.17;;
70008;SDS011;59542;37.950;-122.338;2023-05-21T01:37:30;8.77;;;2.67;;
70008;SDS011;59542;37.950;-122.338;2023-05-21T01:42:53;10.43;;;2.35;;
70008;SDS011;59542;37.950;-122.338;2023-05-21T01:45:21;8.55;;;2.33;;
70008;SDS011;59542;37.950;-122.338;2023-05-21T01:47:50;7.57;;;2.40;;
70008;SDS011;59542;37.950;-122.338;2023-05-21T01:50:21;9.45;;;2.35;;
70008;SDS011;59542;37.950;-122.338;2023-05-21T01:52:50;6.25;;;2.67;;
70008;SDS011;59542;37.950;-122.338;2023-05-21T01:55:18;10.07;;;2.63;;
70008;SDS011;59542;37.950;-122.338;2023-05-21T01:57:55;9.95;;;2.70;;
70008;SDS011;59542;37.950;-122.338;2023-05-21T02:00:22;8.25;;;2.42;;
70008;SDS011;59542;37.950;-122.338;2023-05-21T02:02:51;4.53;;;2.30;;
70008;SDS011;59542;37.950;-122.338;2023-05-21T02:05:18;6.28;;;2.35;;
70008;SDS011;59542;37.950;-122.338;2023-05-21T02:07:44;6.55;;;2.90;;
70008;SDS011;59542;37.950;-122.338;2023-05-21T02:10:11;10.05;;;2.55;;
70008;SDS011;59542;37.950;-122.338;2023-05-21T02:12:38;7.82;;;2.50;;
70008;SDS011;59542;37.950;-122.338;2023-05-21T02:15:04;7.10;;;2.40;;
70008;SDS011;59542;37.950;-122.338;2023-05-21T02:17:31;7.15;;;2.55;;
70008;SDS011;59542;37.950;-122.338;2023-05-21T02:20:00;7.63;;;2.63;;
70008;SDS011;59542;37.950;-122.338;2023-05-21T02:22:36;7.18;;;2.35;;
70008;SDS011;59542;37.950;-122.338;2023-05-21T02:25:04;7.43;;;2.70;;
70008;SDS011;59542;37.950;-122.338;2023-05-21T02:27:32;7.57;;;2.80;;
70008;SDS011;59542;37.950;-122.338;2023-05-21T02:29:59;6.30;;;2.20;;
70008;SDS011;59542;37.950;-122.338;2023-05-21T02:32:26;6.93;;;2.53;;
70008;SDS011;59542;37.950;-122.338;2023-05-21T02:34:52;13.52;;;2.60;;
70008;SDS011;59542;37.950;-122.338;2023-05-21T02:37:19;8.55;;;3.13;;
70008;SDS011;59542;37.950;-122.338;2023-05-21T02:39:46;7.05;;;2.40;;
70008;SDS011;59542;37.950;-122.338;2023-05-21T02:42:12;8.32;;;2.83;;
70008;SDS011;59542;37.950;-122.338;2023-05-21T02:44:38;8.70;;;2.40;;
70008;SDS011;59542;37.950;-122.338;2023-05-21T02:47:04;7.18;;;2.75;;
70008;SDS011;59542;37.950;-122.338;2023-05-21T02:49:32;10.07;;;2.25;;
70008;SDS011;59542;37.950;-122.338;2023-05-21T02:51:58;9.40;;;3.00;;
70008;SDS011;59542;37.950;-122.338;2023-05-21T02:54:25;7.70;;;2.35;;
70008;SDS011;59542;37.950;-122.338;2023-05-21T02:56:51;6.15;;;2.35;;
70008;SDS011;59542;37.950;-122.338;2023-05-21T02:59:17;5.85;;;2.30;;
70008;SDS011;59542;37.950;-122.338;2023-05-21T03:01:43;10.30;;;2.88;;
70008;SDS011;59542;37.950;-122.338;2023-05-21T03:04:10;6.78;;;3.10;;
70008;SDS011;59542;37.950;-122.338;2023-05-21T03:06:36;6.75;;;2.90;;
70008;SDS011;59542;37.950;-122.338;2023-05-21T03:09:02;8.68;;;3.78;;
70008;SDS011;59542;37.950;-122.338;2023-05-21T03:11:30;9.50;;;3.30;;
70008;SDS011;59542;37.950;-122.338;2023-05-21T03:13:56;7.40;;;3.20;;
70008;SDS011;59542;37.950;-122.338;2023-05-21T03:16:22;12.00;;;2.80;;
70008;SDS011;59542;37.950;-122.338;2023-05-21T03:18:49;11.32;;;3.50;;
70008;SDS011;59542;37.950;-122.338;2023-05-21T03:21:15;8.02;;;3.22;;
70008;SDS011;59542;37.950;-122.338;2023-05-21T03:23:41;9.25;;;3.20;;
70008;SDS011;59542;37.950;-122.338;2023-05-21T03:26:08;7.82;;;3.13;;
70008;SDS011;59542;37.950;-122.338;2023-05-21T03:28:34;9.88;;;3.13;;
70008;SDS011;59542;37.950;-122.338;2023-05-21T03:31:00;10.70;;;3.05;;
70008;SDS011;59542;37.950;-122.338;2023-05-21T03:33:26;7.15;;;3.00;;
70008;SDS011;59542;37.950;-122.338;2023-05-21T03:35:53;7.47;;;2.90;;
70008;SDS011;59542;37.950;-122.338;2023-05-21T03:38:19;9.18;;;3.35;;
70008;SDS011;59542;37.950;-122.338;2023-05-21T03:40:46;10.93;;;3.10;;
70008;SDS011;59542;37.950;-122.338;2023-05-21T03:43:12;10.63;;;3.25;;
70008;SDS011;59542;37.950;-122.338;2023-05-21T03:45:38;6.72;;;2.80;;
70008;SDS011;59542;37.950;-122.338;2023-05-21T03:48:04;8.63;;;3.20;;
70008;SDS011;59542;37.950;-122.338;2023-05-21T03:50:31;10.35;;;2.85;;
70008;SDS011;59542;37.950;-122.338;2023-05-21T03:52:57;12.40;;;2.97;;
70008;SDS011;59542;37.950;-122.338;2023-05-21T03:55:23;7.70;;;3.00;;
70008;SDS011;59542;37.950;-122.338;2023-05-21T03:57:49;10.00;;;2.80;;
70008;SDS011;59542;37.950;-122.338;2023-05-21T04:00:15;8.07;;;2.90;;
70008;SDS011;59542;37.950;-122.338;2023-05-21T04:02:42;9.90;;;2.80;;
70008;SDS011;59542;37.950;-122.338;2023-05-21T04:05:08;6.43;;;2.97;;
70008;SDS011;59542;37.950;-122.338;2023-05-21T04:07:34;7.07;;;2.90;;
70008;SDS011;59542;37.950;-122.338;2023-05-21T04:10:02;4.93;;;2.33;;
70008;SDS011;59542;37.950;-122.338;2023-05-21T04:12:29;11.55;;;2.67;;
70008;SDS011;59542;37.950;-122.338;2023-05-21T04:14:55;7.55;;;2.28;;
70008;SDS011;59542;37.950;-122.338;2023-05-21T04:17:22;7.93;;;2.95;;
70008;SDS011;59542;37.950;-122.338;2023-05-21T04:19:51;10.68;;;2.35;;
70008;SDS011;59542;37.950;-122.338;2023-05-21T04:22:17;5.38;;;1.95;;
70008;SDS011;59542;37.950;-122.338;2023-05-21T04:24:43;7.20;;;2.70;;
70008;SDS011;59542;37.950;-122.338;2023-05-21T04:27:10;6.97;;;2.10;;
70008;SDS011;59542;37.950;-122.338;2023-05-21T04:29:38;5.30;;;2.25;;
70008;SDS011;59542;37.950;-122.338;2023-05-21T04:32:07;8.63;;;2.85;;
70008;SDS011;59542;37.950;-122.338;2023-05-21T04:34:33;12.32;;;3.08;;
70008;SDS011;59542;37.950;-122.338;2023-05-21T04:37:00;5.75;;;2.47;;
70008;SDS011;59542;37.950;-122.338;2023-05-21T04:39:29;6.05;;;2.75;;
70008;SDS011;59542;37.950;-122.338;2023-05-21T04:41:56;8.05;;;2.63;;
70008;SDS011;59542;37.950;-122.338;2023-05-21T04:44:22;10.35;;;2.60;;
70008;SDS011;59542;37.950;-122.338;2023-05-21T04:46:49;6.07;;;2.30;;
70008;SDS011;59542;37.950;-122.338;2023-05-21T04:49:15;9.68;;;2.70;;
70008;SDS011;59542;37.950;-122.338;2023-05-21T04:51:42;6.80;;;2.40;;
70008;SDS011;59542;37.950;-122.338;2023-05-21T04:54:08;6.13;;;2.20;;
70008;SDS011;59542;37.950;-122.338;2023-05-21T04:56:34;6.55;;;2.83;;
70008;SDS011;59542;37.950;-122.338;2023-05-21T04:59:00;6.30;;;2.80;;
70008;SDS011;59542;37.950;-122.338;2023-05-21T05:01:27;7.30;;;2.40;;
70008;SDS011;59542;37.950;-122.338;2023-05-21T05:03:54;5.43;;;2.60;;
70008;SDS011;59542;37.950;-122.338;2023-05-21T05:06:20;7.47;;;2.60;;
70008;SDS011;59542;37.950;-122.338;2023-05-21T05:08:46;6.00;;;2.10;;
70008;SDS011;59542;37.950;-122.338;2023-05-21T05:11:13;7.32;;;2.30;;
70008;SDS011;59542;37.950;-122.338;2023-05-21T05:13:39;7.50;;;2.28;;
70008;SDS011;59542;37.950;-122.338;2023-05-21T05:16:06;7.03;;;2.75;;
70008;SDS011;59542;37.950;-122.338;2023-05-21T05:18:33;4.25;;;2.05;;
70008;SDS011;59542;37.950;-122.338;2023-05-21T05:21:00;7.38;;;2.40;;
70008;SDS011;59542;37.950;-122.338;2023-05-21T05:23:27;6.53;;;2.83;;
70008;SDS011;59542;37.950;-122.338;2023-05-21T05:25:53;5.72;;;2.10;;
70008;SDS011;59542;37.950;-122.338;2023-05-21T05:28:19;6.93;;;2.42;;
70008;SDS011;59542;37.950;-122.338;2023-05-21T05:30:46;13.93;;;3.08;;
70008;SDS011;59542;37.950;-122.338;2023-05-21T05:33:12;8.90;;;2.17;;
70008;SDS011;59542;37.950;-122.338;2023-05-21T05:35:38;7.80;;;2.55;;
70008;SDS011;59542;37.950;-122.338;2023-05-21T05:38:04;7.75;;;2.22;;
70008;SDS011;59542;37.950;-122.338;2023-05-21T05:40:33;6.53;;;2.20;;
70008;SDS011;59542;37.950;-122.338;2023-05-21T05:42:59;9.70;;;2.70;;
70008;SDS011;59542;37.950;-122.338;2023-05-21T05:45:25;7.95;;;2.58;;
70008;SDS011;59542;37.950;-122.338;2023-05-21T05:47:51;6.57;;;2.35;;
70008;SDS011;59542;37.950;-122.338;2023-05-21T05:50:18;9.48;;;2.50;;
70008;SDS011;59542;37.950;-122.338;2023-05-21T05:52:45;6.60;;;2.63;;
70008;SDS011;59542;37.950;-122.338;2023-05-21T05:55:11;8.55;;;2.08;;
70008;SDS011;59542;37.950;-122.338;2023-05-21T05:57:37;7.18;;;2.63;;
70008;SDS011;59542;37.950;-122.338;2023-05-21T06:00:04;6.38;;;2.20;;
70008;SDS011;59542;37.950;-122.338;2023-05-21T06:02:30;5.95;;;2.47;;
70008;SDS011;59542;37.950;-122.338;2023-05-21T06:04:56;8.73;;;2.42;;
70008;SDS011;59542;37.950;-122.338;2023-05-21T06:07:23;12.50;;;2.40;;
70008;SDS011;59542;37.950;-122.338;2023-05-21T06:09:49;6.20;;;2.42;;
70008;SDS011;59542;37.950;-122.338;2023-05-21T06:12:15;6.25;;;2.53;;
70008;SDS011;59542;37.950;-122.338;2023-05-21T06:14:41;8.45;;;2.17;;
70008;SDS011;59542;37.950;-122.338;2023-05-21T06:17:10;7.85;;;2.65;;
70008;SDS011;59542;37.950;-122.338;2023-05-21T06:19:36;10.35;;;3.13;;
70008;SDS011;59542;37.950;-122.338;2023-05-21T06:22:03;11.88;;;2.75;;
70008;SDS011;59542;37.950;-122.338;2023-05-21T06:24:29;8.82;;;2.40;;
70008;SDS011;59542;37.950;-122.338;2023-05-21T06:26:55;13.68;;;3.35;;
70008;SDS011;59542;37.950;-122.338;2023-05-21T06:29:21;11.88;;;3.10;;
70008;SDS011;59542;37.950;-122.338;2023-05-21T06:31:48;10.00;;;2.75;;
70008;SDS011;59542;37.950;-122.338;2023-05-21T06:34:14;10.88;;;2.75;;
70008;SDS011;59542;37.950;-122.338;2023-05-21T06:36:40;12.57;;;2.63;;
70008;SDS011;59542;37.950;-122.338;2023-05-21T06:39:06;8.65;;;2.85;;
70008;SDS011;59542;37.950;-122.338;2023-05-21T06:41:33;6.88;;;2.75;;
70008;SDS011;59542;37.950;-122.338;2023-05-21T06:43:59;8.45;;;2.05;;
70008;SDS011;59542;37.950;-122.338;2023-05-21T06:46:25;6.70;;;2.45;;
70008;SDS011;59542;37.950;-122.338;2023-05-21T06:48:51;9.13;;;2.13;;
70008;SDS011;59542;37.950;-122.338;2023-05-21T06:51:18;6.07;;;2.72;;
70008;SDS011;59542;37.950;-122.338;2023-05-21T06:53:44;9.73;;;3.17;;
70008;SDS011;59542;37.950;-122.338;2023-05-21T06:56:11;8.23;;;2.83;;
70008;SDS011;59542;37.950;-122.338;2023-05-21T06:58:37;10.68;;;2.90;;
70008;SDS011;59542;37.950;-122.338;2023-05-21T07:01:03;8.00;;;2.63;;
70008;SDS011;59542;37.950;-122.338;2023-05-21T07:03:30;10.15;;;2.60;;
70008;SDS011;59542;37.950;-122.338;2023-05-21T07:05:56;8.98;;;2.25;;
70008;SDS011;59542;37.950;-122.338;2023-05-21T07:08:23;10.10;;;2.80;;
70008;SDS011;59542;37.950;-122.338;2023-05-21T07:10:49;10.23;;;2.92;;
70008;SDS011;59542;37.950;-122.338;2023-05-21T07:13:15;10.23;;;2.65;;
70008;SDS011;59542;37.950;-122.338;2023-05-21T07:15:41;8.38;;;1.88;;
70008;SDS011;59542;37.950;-122.338;2023-05-21T07:18:08;5.60;;;2.05;;
70008;SDS011;59542;37.950;-122.338;2023-05-21T07:20:34;7.38;;;2.90;;
70008;SDS011;59542;37.950;-122.338;2023-05-21T07:23:00;7.68;;;2.53;;
70008;SDS011;59542;37.950;-122.338;2023-05-21T07:25:26;8.55;;;2.47;;
70008;SDS011;59542;37.950;-122.338;2023-05-21T07:27:53;8.68;;;2.13;;
70008;SDS011;59542;37.950;-122.338;2023-05-21T07:30:19;4.50;;;1.80;;
70008;SDS011;59542;37.950;-122.338;2023-05-21T07:32:45;6.10;;;2.30;;
70008;SDS011;59542;37.950;-122.338;2023-05-21T07:35:11;7.80;;;1.92;;
70008;SDS011;59542;37.950;-122.338;2023-05-21T07:37:37;5.68;;;1.90;;
70008;SDS011;59542;37.950;-122.338;2023-05-21T07:40:04;8.10;;;2.70;;
70008;SDS011;59542;37.950;-122.338;2023-05-21T07:42:32;7.40;;;2.05;;
70008;SDS011;59542;37.950;-122.338;2023-05-21T07:44:58;4.18;;;1.92;;
70008;SDS011;59542;37.950;-122.338;2023-05-21T07:47:24;7.18;;;2.03;;
70008;SDS011;59542;37.950;-122.338;2023-05-21T07:49:51;6.93;;;2.58;;
70008;SDS011;59542;37.950;-122.338;2023-05-21T07:52:17;6.78;;;2.85;;
70008;SDS011;59542;37.950;-122.338;2023-05-21T07:54:43;7.47;;;2.50;;
70008;SDS011;59542;37.950;-122.338;2023-05-21T07:57:09;5.68;;;2.22;;
70008;SDS011;59542;37.950;-122.338;2023-05-21T07:59:36;8.25;;;2.80;;
70008;SDS011;59542;37.950;-122.338;2023-05-21T08:02:02;6.43;;;1.80;;
70008;SDS011;59542;37.950;-122.338;2023-05-21T08:04:28;3.80;;;1.73;;
70008;SDS011;59542;37.950;-122.338;2023-05-21T08:06:54;8.23;;;2.40;;
70008;SDS011;59542;37.950;-122.338;2023-05-21T08:09:21;5.45;;;2.33;;
70008;SDS011;59542;37.950;-122.338;2023-05-21T08:11:47;7.68;;;2.47;;
70008;SDS011;59542;37.950;-122.338;2023-05-21T08:14:13;6.57;;;2.90;;
70008;SDS011;59542;37.950;-122.338;2023-05-21T08:16:39;6.18;;;2.60;;
70008;SDS011;59542;37.950;-122.338;2023-05-21T08:19:06;6.47;;;2.10;;
70008;SDS011;59542;37.950;-122.338;2023-05-21T08:21:32;7.60;;;2.80;;
70008;SDS011;59542;37.950;-122.338;2023-05-21T08:23:58;7.07;;;2.35;;
70008;SDS011;59542;37.950;-122.338;2023-05-21T08:26:25;5.28;;;2.55;;
70008;SDS011;59542;37.950;-122.338;2023-05-21T08:28:51;3.97;;;2.00;;
70008;SDS011;59542;37.950;-122.338;2023-05-21T08:31:17;5.60;;;2.40;;
70008;SDS011;59542;37.950;-122.338;2023-05-21T08:33:50;5.07;;;2.00;;
70008;SDS011;59542;37.950;-122.338;2023-05-21T08:36:17;5.15;;;2.25;;
70008;SDS011;59542;37.950;-122.338;2023-05-21T08:38:43;3.55;;;1.88;;
70008;SDS011;59542;37.950;-122.338;2023-05-21T08:41:10;4.32;;;2.30;;
70008;SDS011;59542;37.950;-122.338;2023-05-21T08:43:37;4.82;;;2.20;;
70008;SDS011;59542;37.950;-122.338;2023-05-21T08:46:05;4.68;;;1.90;;
70008;SDS011;59542;37.950;-122.338;2023-05-21T08:48:32;3.85;;;1.60;;
70008;SDS011;59542;37.950;-122.338;2023-05-21T08:51:01;5.90;;;1.67;;
70008;SDS011;59542;37.950;-122.338;2023-05-21T08:53:27;5.32;;;2.08;;
70008;SDS011;59542;37.950;-122.338;2023-05-21T08:55:54;4.85;;;1.60;;
70008;SDS011;59542;37.950;-122.338;2023-05-21T08:58:21;4.55;;;1.63;;
70008;SDS011;59542;37.950;-122.338;2023-05-21T09:00:48;4.35;;;1.63;;
70008;SDS011;59542;37.950;-122.338;2023-05-21T09:03:14;5.28;;;1.73;;
70008;SDS011;59542;37.950;-122.338;2023-05-21T09:05:43;5.53;;;1.60;;
70008;SDS011;59542;37.950;-122.338;2023-05-21T09:10:49;4.68;;;1.70;;
70008;SDS011;59542;37.950;-122.338;2023-05-21T09:13:17;3.03;;;1.33;;
70008;SDS011;59542;37.950;-122.338;2023-05-21T09:15:44;4.03;;;1.90;;
70008;SDS011;59542;37.950;-122.338;2023-05-21T09:18:12;3.95;;;1.40;;
70008;SDS011;59542;37.950;-122.338;2023-05-21T09:20:38;3.22;;;1.58;;
70008;SDS011;59542;37.950;-122.338;2023-05-21T09:23:06;4.95;;;1.48;;
70008;SDS011;59542;37.950;-122.338;2023-05-21T09:25:44;2.60;;;1.40;;
70008;SDS011;59542;37.950;-122.338;2023-05-21T09:28:12;4.78;;;1.45;;
70008;SDS011;59542;37.950;-122.338;2023-05-21T09:30:48;6.50;;;1.55;;
70008;SDS011;59542;37.950;-122.338;2023-05-21T09:33:24;3.83;;;1.38;;
70008;SDS011;59542;37.950;-122.338;2023-05-21T09:35:51;4.70;;;1.38;;
70008;SDS011;59542;37.950;-122.338;2023-05-21T09:38:21;2.58;;;1.20;;
70008;SDS011;59542;37.950;-122.338;2023-05-21T09:40:48;6.43;;;1.25;;
70008;SDS011;59542;37.950;-122.338;2023-05-21T09:43:14;3.53;;;1.13;;
70008;SDS011;59542;37.950;-122.338;2023-05-21T09:45:51;3.38;;;1.05;;
70008;SDS011;59542;37.950;-122.338;2023-05-21T09:48:37;2.75;;;1.10;;
70008;SDS011;59542;37.950;-122.338;2023-05-21T09:51:16;3.47;;;1.35;;
70008;SDS011;59542;37.950;-122.338;2023-05-21T09:53:49;3.08;;;1.30;;
70008;SDS011;59542;37.950;-122.338;2023-05-21T09:56:22;5.65;;;1.20;;
70008;SDS011;59542;37.950;-122.338;2023-05-21T09:58:54;3.45;;;1.10;;
70008;SDS011;59542;37.950;-122.338;2023-05-21T10:01:24;3.30;;;1.10;;
70008;SDS011;59542;37.950;-122.338;2023-05-21T10:03:55;2.17;;;1.10;;
70008;SDS011;59542;37.950;-122.338;2023-05-21T10:06:27;1.77;;;1.00;;
70008;SDS011;59542;37.950;-122.338;2023-05-21T10:08:55;3.22;;;1.30;;
70008;SDS011;59542;37.950;-122.338;2023-05-21T10:11:25;3.90;;;1.33;;
70008;SDS011;59542;37.950;-122.338;2023-05-21T10:14:04;2.50;;;1.00;;
70008;SDS011;59542;37.950;-122.338;2023-05-21T10:16:38;2.85;;;1.15;;
70008;SDS011;59542;37.950;-122.338;2023-05-21T10:19:05;1.90;;;1.00;;
70008;SDS011;59542;37.950;-122.338;2023-05-21T10:21:35;2.30;;;1.08;;
70008;SDS011;59542;37.950;-122.338;2023-05-21T10:24:02;1.60;;;1.10;;
70008;SDS011;59542;37.950;-122.338;2023-05-21T10:26:28;2.42;;;1.00;;
70008;SDS011;59542;37.950;-122.338;2023-05-21T10:28:55;2.88;;;1.30;;
70008;SDS011;59542;37.950;-122.338;2023-05-21T10:31:25;1.65;;;0.82;;
70008;SDS011;59542;37.950;-122.338;2023-05-21T10:33:52;1.95;;;1.00;;
70008;SDS011;59542;37.950;-122.338;2023-05-21T10:36:20;2.45;;;1.10;;
70008;SDS011;59542;37.950;-122.338;2023-05-21T10:38:48;2.78;;;1.15;;
70008;SDS011;59542;37.950;-122.338;2023-05-21T10:41:14;1.75;;;0.95;;
70008;SDS011;59542;37.950;-122.338;2023-05-21T10:44:01;2.67;;;0.80;;
70008;SDS011;59542;37.950;-122.338;2023-05-21T10:52:06;2.83;;;1.00;;
70008;SDS011;59542;37.950;-122.338;2023-05-21T10:58:12;3.28;;;1.00;;
70008;SDS011;59542;37.950;-122.338;2023-05-21T11:00:41;2.40;;;1.10;;
70008;SDS011;59542;37.950;-122.338;2023-05-21T11:03:09;1.08;;;0.80;;
70008;SDS011;59542;37.950;-122.338;2023-05-21T11:05:40;1.40;;;0.80;;
70008;SDS011;59542;37.950;-122.338;2023-05-21T11:08:26;1.35;;;0.90;;
70008;SDS011;59542;37.950;-122.338;2023-05-21T11:10:57;2.03;;;0.90;;
70008;SDS011;59542;37.950;-122.338;2023-05-21T11:13:24;2.08;;;0.85;;
70008;SDS011;59542;37.950;-122.338;2023-05-21T11:21:06;2.42;;;1.10;;
70008;SDS011;59542;37.950;-122.338;2023-05-21T11:24:07;2.63;;;1.17;;
70008;SDS011;59542;37.950;-122.338;2023-05-21T11:26:28;7.47;;;1.35;;
70008;SDS011;59542;37.950;-122.338;2023-05-21T11:29:16;3.00;;;1.20;;
70008;SDS011;59542;37.950;-122.338;2023-05-21T11:31:47;2.67;;;1.20;;
70008;SDS011;59542;37.950;-122.338;2023-05-21T11:34:23;1.90;;;1.00;;
70008;SDS011;59542;37.950;-122.338;2023-05-21T11:39:41;3.42;;;1.00;;
70008;SDS011;59542;37.950;-122.338;2023-05-21T11:42:08;1.98;;;0.80;;
70008;SDS011;59542;37.950;-122.338;2023-05-21T11:44:41;1.35;;;0.60;;
70008;SDS011;59542;37.950;-122.338;2023-05-21T11:47:16;3.25;;;1.02;;
70008;SDS011;59542;37.950;-122.338;2023-05-21T11:49:44;3.30;;;1.20;;
70008;SDS011;59542;37.950;-122.338;2023-05-21T11:52:11;4.75;;;1.40;;
70008;SDS011;59542;37.950;-122.338;2023-05-21T11:54:39;3.25;;;1.25;;
70008;SDS011;59542;37.950;-122.338;2023-05-21T11:57:10;2.78;;;1.20;;
70008;SDS011;59542;37.950;-122.338;2023-05-21T11:59:41;3.25;;;1.50;;
70008;SDS011;59542;37.950;-122.338;2023-05-21T12:02:08;1.75;;;0.90;;
70008;SDS011;59542;37.950;-122.338;2023-05-21T12:04:38;3.83;;;0.93;;
70008;SDS011;59542;37.950;-122.338;2023-05-21T12:07:07;2.65;;;1.15;;
70008;SDS011;59542;37.950;-122.338;2023-05-21T12:09:38;3.30;;;1.00;;
70008;SDS011;59542;37.950;-122.338;2023-05-21T12:12:08;4.00;;;1.48;;
70008;SDS011;59542;37.950;-122.338;2023-05-21T12:14:36;2.17;;;1.02;;
70008;SDS011;59542;37.950;-122.338;2023-05-21T12:17:02;2.42;;;1.10;;
70008;SDS011;59542;37.950;-122.338;2023-05-21T12:19:32;4.60;;;1.00;;
70008;SDS011;59542;37.950;-122.338;2023-05-21T12:22:03;2.75;;;1.20;;
70008;SDS011;59542;37.950;-122.338;2023-05-21T12:24:31;1.80;;;1.38;;
70008;SDS011;59542;37.950;-122.338;2023-05-21T12:26:58;3.00;;;1.20;;
70008;SDS011;59542;37.950;-122.338;2023-05-21T12:29:27;3.50;;;2.08;;
70008;SDS011;59542;37.950;-122.338;2023-05-21T12:31:57;3.17;;;1.80;;
70008;SDS011;59542;37.950;-122.338;2023-05-21T12:37:20;3.72;;;2.13;;
70008;SDS011;59542;37.950;-122.338;2023-05-21T12:39:51;4.22;;;2.05;;
70008;SDS011;59542;37.950;-122.338;2023-05-21T12:42:25;2.13;;;1.65;;
70008;SDS011;59542;37.950;-122.338;2023-05-21T12:47:23;2.40;;;1.17;;
70008;SDS011;59542;37.950;-122.338;2023-05-21T12:49:53;2.97;;;1.48;;
70008;SDS011;59542;37.950;-122.338;2023-05-21T12:52:22;1.48;;;1.27;;
70008;SDS011;59542;37.950;-122.338;2023-05-21T12:54:49;5.68;;;1.67;;
70008;SDS011;59542;37.950;-122.338;2023-05-21T12:57:18;1.88;;;1.10;;
70008;SDS011;59542;37.950;-122.338;2023-05-21T12:59:53;1.95;;;1.15;;
70008;SDS011;59542;37.950;-122.338;2023-05-21T13:02:24;1.67;;;1.25;;
70008;SDS011;59542;37.950;-122.338;2023-05-21T13:05:01;2.10;;;1.27;;
70008;SDS011;59542;37.950;-122.338;2023-05-21T13:07:30;1.17;;;0.90;;
70008;SDS011;59542;37.950;-122.338;2023-05-21T13:09:57;2.38;;;0.82;;
70008;SDS011;59542;37.950;-122.338;2023-05-21T13:12:26;1.52;;;1.10;;
70008;SDS011;59542;37.950;-122.338;2023-05-21T13:14:56;3.58;;;1.10;;
70008;SDS011;59542;37.950;-122.338;2023-05-21T13:17:24;2.35;;;0.90;;
70008;SDS011;59542;37.950;-122.338;2023-05-21T13:22:54;0.95;;;0.80;;
70008;SDS011;59542;37.950;-122.338;2023-05-21T13:25:21;2.45;;;0.70;;
70008;SDS011;59542;37.950;-122.338;2023-05-21T13:27:49;1.38;;;0.95;;
70008;SDS011;59542;37.950;-122.338;2023-05-21T13:30:17;2.15;;;0.90;;
70008;SDS011;59542;37.950;-122.338;2023-05-21T13:32:43;0.75;;;0.75;;
70008;SDS011;59542;37.950;-122.338;2023-05-21T13:35:10;2.03;;;1.23;;
70008;SDS011;59542;37.950;-122.338;2023-05-21T13:37:37;1.35;;;1.00;;
70008;SDS011;59542;37.950;-122.338;2023-05-21T13:40:05;1.33;;;0.80;;
70008;SDS011;59542;37.950;-122.338;2023-05-21T13:42:33;3.22;;;1.33;;
70008;SDS011;59542;37.950;-122.338;2023-05-21T13:45:00;3.22;;;1.58;;
70008;SDS011;59542;37.950;-122.338;2023-05-21T13:47:26;1.27;;;1.13;;
70008;SDS011;59542;37.950;-122.338;2023-05-21T13:49:52;4.00;;;1.27;;
70008;SDS011;59542;37.950;-122.338;2023-05-21T13:52:19;1.58;;;1.33;;
70008;SDS011;59542;37.950;-122.338;2023-05-21T13:54:46;3.28;;;1.63;;
70008;SDS011;59542;37.950;-122.338;2023-05-21T13:57:12;3.63;;;1.52;;
70008;SDS011;59542;37.950;-122.338;2023-05-21T13:59:38;1.17;;;1.00;;
70008;SDS011;59542;37.950;-122.338;2023-05-21T14:02:05;3.85;;;1.30;;
70008;SDS011;59542;37.950;-122.338;2023-05-21T14:04:33;3.63;;;1.40;;
70008;SDS011;59542;37.950;-122.338;2023-05-21T14:06:59;3.08;;;1.38;;
70008;SDS011;59542;37.950;-122.338;2023-05-21T14:09:26;2.08;;;1.20;;
70008;SDS011;59542;37.950;-122.338;2023-05-21T14:11:52;2.75;;;1.17;;
70008;SDS011;59542;37.950;-122.338;2023-05-21T14:14:20;3.15;;;1.10;;
70008;SDS011;59542;37.950;-122.338;2023-05-21T14:16:47;1.00;;;0.90;;
70008;SDS011;59542;37.950;-122.338;2023-05-21T14:19:14;4.38;;;1.00;;
70008;SDS011;59542;37.950;-122.338;2023-05-21T14:21:40;1.50;;;1.10;;
70008;SDS011;59542;37.950;-122.338;2023-05-21T14:24:07;1.55;;;1.00;;
70008;SDS011;59542;37.950;-122.338;2023-05-21T14:26:33;1.95;;;0.80;;
70008;SDS011;59542;37.950;-122.338;2023-05-21T14:29:01;1.23;;;1.00;;
70008;SDS011;59542;37.950;-122.338;2023-05-21T14:31:27;1.20;;;0.77;;
70008;SDS011;59542;37.950;-122.338;2023-05-21T14:33:53;3.38;;;0.90;;
70008;SDS011;59542;37.950;-122.338;2023-05-21T14:36:19;1.25;;;1.15;;
70008;SDS011;59542;37.950;-122.338;2023-05-21T14:38:45;3.30;;;1.10;;
70008;SDS011;59542;37.950;-122.338;2023-05-21T14:41:12;4.20;;;1.10;;
70008;SDS011;59542;37.950;-122.338;2023-05-21T14:43:38;1.95;;;0.90;;
70008;SDS011;59542;37.950;-122.338;2023-05-21T14:46:04;1.55;;;1.30;;